Forside
METAR-TAF:

METAR-TAF

Lufthavne :

Olney-Noble Airport

Olney-Noble, Illinois, USA

Breddekreds: 38-43-19N, længdekreds: 088-10-35W, højde: 147 m

Aktuelle vejr

Denne rapport blev lavet for 24 minutter siden, kl. 07:55 UTC
Vind 4 kt fra syd
Temperatur 4°C
Fugtighed 60%
Tryk 1023 hPa
Sigt: 16.1 km
skyfri

METAR: KOLY 220755Z AUTO 19004KT 10SM CLR 04/M03 A3021 RMK AO2 T00411029

Tid: 03:19 (08:19 UTC)


TAF: fraværende

Vejrobservationer og prognoser fra mere end 4000 lufthavne (METAR og TAF).

De gule og røde prikker repræsenterer de meteorologiske stationer.

Flyt musen over at se navnet på stationen.

Så klik over at se vejr observationer og prognoser.

At skifte det kort: Klik på de grønne knapper med et sort kors for at zoome ind; på den grønne knap med en bindestreg for at zoome ud; eller på de grønne pile for tilstødende kort.


METAR-TAF: